Terminal Aerodrome Forecast
Issued by NWS Wakefield, VA

Home | Current Version | Previous Version | Text Only | Print | Product List | Glossary On
Versions: 1 2 3 4 5 6 7 8 9 10 11 12
000
FTUS41 KAKQ 061120
TAFSBY
TAF
KSBY 061120Z 0612/0712 19004KT P6SM BKN120
     FM061700 12007KT P6SM BKN050
     FM070000 VRB03KT P6SM BKN050 BKN250=

USA.gov is the U.S. government's official web portal to all federal, state and local government web resources and services.